Time;durP1;ratioP1;P1;durP2;ratioP2;P2;SDS_P1;SDS_P2;PMS_P1;PMS_P2;Temp;Humidity;BMP_temperature;BMP_pressure;BME280_temperature;BME280_humidity;BME280_pressure;Samples;Min_cycle;Max_cycle;Signal;HPM_P1;HPM_P2
2021/03/25 00:01:31;;;;;;;16.05;8.73;;;3.10;86.70;;;;;;5000111;28;20076;-80
2021/03/25 00:03:57;;;;;;;17.55;8.55;;;3.00;86.60;;;;;;5000110;28;20045;-80
2021/03/25 00:06:24;;;;;;;18.45;8.45;;;3.00;86.60;;;;;;5000130;28;20022;-80
2021/03/25 00:08:50;;;;;;;19.00;8.77;;;3.00;86.60;;;;;;4999774;28;20107;-80
2021/03/25 00:11:16;;;;;;;15.43;8.20;;;2.90;86.50;;;;;;4996923;28;20039;-79
2021/03/25 00:13:42;;;;;;;16.38;8.35;;;2.90;86.50;;;;;;4996957;28;20030;-80
2021/03/25 00:16:08;;;;;;;17.33;8.50;;;2.80;86.60;;;;;;4996886;28;20027;-80
2021/03/25 00:18:35;;;;;;;18.02;8.82;;;2.80;86.60;;;;;;4996685;28;20387;-79
2021/03/25 00:21:01;;;;;;;16.67;8.30;;;2.70;86.60;;;;;;4996638;28;20096;-80
2021/03/25 00:23:27;;;;;;;15.63;8.15;;;2.70;86.70;;;;;;4996883;28;20054;-79
2021/03/25 00:25:52;;;;;;;18.52;9.05;;;2.60;86.60;;;;;;4996732;28;20030;-80
2021/03/25 00:28:18;;;;;;;17.50;8.27;;;2.70;86.60;;;;;;4996332;28;20038;-80
2021/03/25 00:30:45;;;;;;;18.60;9.05;;;2.60;86.60;;;;;;4979328;28;20033;-79
2021/03/25 00:33:14;;;;;;;16.65;8.80;;;2.60;86.70;;;;;;4996694;28;20058;-80
2021/03/25 00:35:40;;;;;;;17.30;8.43;;;2.50;86.80;;;;;;4979954;28;20165;-79
2021/03/25 00:38:07;;;;;;;15.93;7.97;;;2.50;86.80;;;;;;4996821;28;20033;-80
2021/03/25 00:40:33;;;;;;;18.10;8.75;;;2.50;86.80;;;;;;4996462;28;20026;-80
2021/03/25 00:43:00;;;;;;;17.65;8.15;;;2.50;86.90;;;;;;4996507;28;20352;-80
2021/03/25 00:45:29;;;;;;;17.52;8.38;;;2.40;86.80;;;;;;4995056;28;20026;-80
2021/03/25 00:47:55;;;;;;;17.40;7.78;;;2.40;86.80;;;;;;4976851;28;20043;-80
2021/03/25 00:50:28;;;;;;;17.52;8.02;;;2.40;86.80;;;;;;4976652;28;20117;-79
2021/03/25 00:52:53;;;;;;;15.70;8.00;;;2.30;86.70;;;;;;4976740;28;20038;-80
2021/03/25 00:55:20;;;;;;;18.23;8.23;;;2.30;86.80;;;;;;4976619;28;20407;-80
2021/03/25 00:57:45;;;;;;;19.98;9.40;;;2.20;86.70;;;;;;4976776;28;20022;-80
2021/03/25 01:00:17;;;;;;;18.85;8.25;;;2.20;86.80;;;;;;4976599;28;20042;-80
2021/03/25 01:02:43;;;;;;;17.02;8.30;;;2.20;86.80;;;;;;4976870;28;20154;-80
2021/03/25 01:05:10;;;;;;;17.38;8.48;;;2.20;86.80;;;;;;4959016;28;20113;-79
2021/03/25 01:07:35;;;;;;;18.73;8.63;;;2.10;86.80;;;;;;4976473;28;20042;-80
2021/03/25 01:10:07;;;;;;;14.75;8.40;;;2.10;86.80;;;;;;4976360;28;20105;-79
2021/03/25 01:12:32;;;;;;;16.80;7.97;;;2.00;86.80;;;;;;4976492;28;20050;-80
2021/03/25 01:14:58;;;;;;;16.05;8.18;;;2.00;86.80;;;;;;4976125;28;20019;-80
2021/03/25 01:17:24;;;;;;;18.00;8.15;;;2.00;86.80;;;;;;4976309;28;20041;-79
2021/03/25 01:19:49;;;;;;;18.15;8.60;;;1.90;86.70;;;;;;4976331;28;20031;-79
2021/03/25 01:22:15;;;;;;;18.27;8.18;;;1.90;86.80;;;;;;4975977;28;20154;-80
2021/03/25 01:24:40;;;;;;;17.35;8.45;;;1.90;86.80;;;;;;4975431;28;20023;-79
2021/03/25 01:27:06;;;;;;;15.93;8.32;;;1.80;86.90;;;;;;4976177;28;20062;-79
2021/03/25 01:29:32;;;;;;;16.50;7.93;;;1.80;86.80;;;;;;4975941;28;20034;-78
2021/03/25 01:31:57;;;;;;;14.82;7.78;;;1.80;86.80;;;;;;4976054;28;20452;-78
2021/03/25 01:34:23;;;;;;;15.35;8.05;;;1.70;86.80;;;;;;4976055;28;20046;-79
2021/03/25 01:36:49;;;;;;;18.00;8.98;;;1.70;86.80;;;;;;4975942;28;20031;-78
2021/03/25 01:39:16;;;;;;;17.48;8.13;;;1.70;86.80;;;;;;4975890;28;20038;-78
2021/03/25 01:41:42;;;;;;;17.92;8.68;;;1.70;86.70;;;;;;4975552;28;20476;-78
2021/03/25 01:44:32;;;;;;;16.70;8.27;;;1.60;86.70;;;;;;4975834;28;20027;-78
2021/03/25 01:46:58;;;;;;;16.90;8.75;;;1.60;86.80;;;;;;4989317;28;20466;-78
2021/03/25 01:49:23;;;;;;;18.17;8.68;;;1.50;86.80;;;;;;4994883;28;20046;-78
2021/03/25 01:52:11;;;;;;;15.32;7.72;;;1.50;86.90;;;;;;4995062;28;20041;-80
2021/03/25 01:54:53;;;;;;;17.95;8.40;;;1.50;86.90;;;;;;4995078;28;20022;-79
2021/03/25 01:57:33;;;;;;;16.80;8.77;;;1.40;86.80;;;;;;4994686;28;20023;-79
2021/03/25 02:00:10;;;;;;;18.15;8.43;;;1.40;86.80;;;;;;4995067;28;20026;-79
2021/03/25 02:02:39;;;;;;;20.13;8.38;;;1.30;86.80;;;;;;4994904;28;20027;-79
2021/03/25 02:05:23;;;;;;;16.90;8.15;;;1.30;86.90;;;;;;4994892;28;20026;-79
2021/03/25 02:08:06;;;;;;;18.33;8.10;;;1.30;86.90;;;;;;4994784;28;20026;-79
2021/03/25 02:10:47;;;;;;;18.45;8.50;;;1.20;86.80;;;;;;4994604;28;20018;-79
2021/03/25 02:13:50;;;;;;;17.90;8.50;;;1.20;86.90;;;;;;4994706;28;20060;-79
2021/03/25 02:16:26;;;;;;;21.17;8.05;;;1.20;87.00;;;;;;4995003;28;20486;-79
2021/03/25 02:19:01;;;;;;;17.95;8.75;;;1.10;86.90;;;;;;4994589;28;20030;-80
2021/03/25 02:21:50;;;;;;;20.35;8.93;;;1.10;87.00;;;;;;4994458;28;20030;-80
2021/03/25 02:24:27;;;;;;;16.10;8.55;;;1.10;87.10;;;;;;4994504;28;20030;-80
2021/03/25 02:27:03;;;;;;;21.00;9.98;;;1.10;87.10;;;;;;4994560;28;20030;-80
2021/03/25 02:29:38;;;;;;;20.02;9.70;;;1.10;87.30;;;;;;4994495;28;20030;-80
2021/03/25 02:32:12;;;;;;;24.73;10.43;;;1.10;87.30;;;;;;4994594;28;20026;-80
2021/03/25 02:34:42;;;;;;;21.75;10.25;;;1.10;87.30;;;;;;4993795;28;20041;-80
2021/03/25 02:37:22;;;;;;;22.27;10.88;;;1.00;87.30;;;;;;4994367;28;20061;-80
2021/03/25 02:40:10;;;;;;;22.05;9.80;;;1.00;87.20;;;;;;4994327;28;20057;-80
2021/03/25 02:42:55;;;;;;;20.58;10.80;;;1.00;87.20;;;;;;4993991;28;20142;-80
2021/03/25 02:45:26;;;;;;;19.23;9.68;;;1.00;87.10;;;;;;4993581;28;20022;-80
2021/03/25 02:47:56;;;;;;;21.23;10.48;;;1.00;87.30;;;;;;4974705;28;20027;-80
2021/03/25 02:50:40;;;;;;;21.15;10.52;;;0.90;87.20;;;;;;4974751;28;20058;-80
2021/03/25 02:53:33;;;;;;;20.40;10.75;;;0.90;87.30;;;;;;4957193;28;20117;-80
2021/03/25 02:56:10;;;;;;;22.42;10.05;;;0.90;87.40;;;;;;4966769;28;20089;-79
2021/03/25 02:58:38;;;;;;;19.70;9.85;;;0.90;87.30;;;;;;4974563;28;20133;-79
2021/03/25 03:01:07;;;;;;;22.38;9.90;;;0.90;87.40;;;;;;4974742;28;20023;-80
2021/03/25 03:03:37;;;;;;;18.02;9.50;;;0.90;87.40;;;;;;4974373;28;20042;-80
2021/03/25 03:06:05;;;;;;;19.58;9.85;;;0.90;87.50;;;;;;4974748;28;20023;-80
2021/03/25 03:08:37;;;;;;;20.50;9.05;;;0.90;87.40;;;;;;4974661;28;20487;-80
2021/03/25 03:11:10;;;;;;;19.00;9.77;;;0.90;87.40;;;;;;4974622;28;20027;-80
2021/03/25 03:13:41;;;;;;;19.75;9.75;;;0.90;87.60;;;;;;4974793;28;20038;-80
2021/03/25 03:16:12;;;;;;;23.20;10.70;;;0.80;87.30;;;;;;4974805;28;20105;-79
2021/03/25 03:18:46;;;;;;;20.45;11.05;;;0.80;87.30;;;;;;4974614;28;20050;-80
2021/03/25 03:21:17;;;;;;;19.17;10.57;;;0.80;87.40;;;;;;4974734;28;20027;-80
2021/03/25 03:23:43;;;;;;;19.85;10.40;;;0.80;87.30;;;;;;4957305;28;20451;-80
2021/03/25 03:26:14;;;;;;;20.90;10.30;;;0.80;87.30;;;;;;4974245;28;20102;-80
2021/03/25 03:28:48;;;;;;;20.35;10.13;;;0.70;87.20;;;;;;4957398;28;20509;-80
2021/03/25 03:31:27;;;;;;;24.02;11.50;;;0.70;87.40;;;;;;4974414;28;20079;-80
2021/03/25 03:33:59;;;;;;;19.48;9.30;;;0.70;87.40;;;;;;4974417;28;20034;-80
2021/03/25 03:36:25;;;;;;;22.60;11.00;;;0.70;87.30;;;;;;4974401;28;20110;-79
2021/03/25 03:39:22;;;;;;;23.52;10.32;;;0.70;87.30;;;;;;4974239;28;20045;-80
2021/03/25 03:41:57;;;;;;;20.63;10.15;;;0.70;87.90;;;;;;4962341;28;20035;-80
2021/03/25 03:44:28;;;;;;;22.95;9.70;;;0.60;87.30;;;;;;4974402;28;20467;-80
2021/03/25 03:46:56;;;;;;;21.52;11.25;;;0.60;87.30;;;;;;4988537;28;20037;-80
2021/03/25 03:49:31;;;;;;;22.65;10.32;;;0.60;87.50;;;;;;4997235;28;20049;-80
2021/03/25 03:52:04;;;;;;;18.60;9.93;;;0.60;87.40;;;;;;4997406;28;20022;-80
2021/03/25 03:54:30;;;;;;;19.73;9.63;;;0.50;87.50;;;;;;4997474;28;20037;-79
2021/03/25 03:57:14;;;;;;;24.10;10.40;;;0.60;87.60;;;;;;4979675;28;20034;-79
2021/03/25 03:59:46;;;;;;;22.80;10.52;;;0.50;87.50;;;;;;4997262;28;20046;-79
2021/03/25 04:02:36;;;;;;;21.45;10.48;;;0.50;87.50;;;;;;4997112;28;20034;-79
2021/03/25 04:05:17;;;;;;;23.48;10.90;;;0.50;87.50;;;;;;4997226;28;20101;-79
2021/03/25 04:07:46;;;;;;;19.35;9.52;;;0.50;87.40;;;;;;4996940;28;20069;-79
2021/03/25 04:10:20;;;;;;;21.27;10.10;;;0.50;87.50;;;;;;4997167;28;20023;-79
2021/03/25 04:12:52;;;;;;;19.23;9.23;;;0.50;87.60;;;;;;4996981;28;20034;-79
2021/03/25 04:15:25;;;;;;;19.40;9.13;;;0.40;87.50;;;;;;4996978;28;20030;-79
2021/03/25 04:18:19;;;;;;;20.38;9.27;;;0.50;87.40;;;;;;4997082;28;20037;-79
2021/03/25 04:20:49;;;;;;;23.03;10.10;;;0.40;87.40;;;;;;4996654;28;20022;-79
2021/03/25 04:23:18;;;;;;;24.08;10.48;;;0.40;87.50;;;;;;4996782;28;20865;-79
2021/03/25 04:26:19;;;;;;;23.40;11.10;;;0.40;87.60;;;;;;4996697;28;20030;-80
2021/03/25 04:29:21;;;;;;;20.60;10.30;;;0.40;87.60;;;;;;4979409;28;20026;-81
2021/03/25 04:31:47;;;;;;;25.25;11.05;;;0.40;87.50;;;;;;4979098;28;20113;-81
2021/03/25 04:34:13;;;;;;;23.48;10.27;;;0.30;87.50;;;;;;4996513;28;20117;-81
2021/03/25 04:36:42;;;;;;;26.50;11.45;;;0.40;87.60;;;;;;4996464;28;20022;-81
2021/03/25 04:39:10;;;;;;;23.45;10.98;;;0.30;87.60;;;;;;4996185;28;20482;-81
2021/03/25 04:41:38;;;;;;;28.00;10.55;;;0.30;87.70;;;;;;4996447;28;20142;-81
2021/03/25 04:44:07;;;;;;;23.30;10.00;;;0.30;87.60;;;;;;4996472;28;20031;-81
2021/03/25 04:46:46;;;;;;;20.45;10.18;;;0.30;87.60;;;;;;4986013;28;20078;-80
2021/03/25 04:49:39;;;;;;;23.13;11.20;;;0.30;87.70;;;;;;4976696;28;20035;-80
2021/03/25 04:52:12;;;;;;;20.35;11.07;;;0.30;87.70;;;;;;4976222;28;20059;-80
2021/03/25 04:54:39;;;;;;;24.65;11.15;;;0.30;87.70;;;;;;4976781;28;20031;-80
2021/03/25 04:57:16;;;;;;;21.25;10.70;;;0.30;87.70;;;;;;4958986;28;20035;-80
2021/03/25 04:59:42;;;;;;;22.50;10.43;;;0.30;87.70;;;;;;4959325;28;20038;-80
2021/03/25 05:02:11;;;;;;;22.80;10.43;;;0.30;87.70;;;;;;4959389;28;20019;-80
2021/03/25 05:04:42;;;;;;;23.77;11.07;;;0.30;87.80;;;;;;4976770;28;20027;-80
2021/03/25 05:07:12;;;;;;;20.08;10.32;;;0.30;87.80;;;;;;4976605;28;20059;-80
2021/03/25 05:09:38;;;;;;;20.92;9.85;;;0.30;87.80;;;;;;4959431;28;20105;-80
2021/03/25 05:12:04;;;;;;;23.17;10.82;;;0.30;87.90;;;;;;4976462;28;20082;-80
2021/03/25 05:14:31;;;;;;;26.30;11.00;;;0.30;87.80;;;;;;4976221;28;20034;-80
2021/03/25 05:17:18;;;;;;;26.00;10.70;;;0.30;87.80;;;;;;4976500;28;20105;-80
2021/03/25 05:20:11;;;;;;;23.80;11.27;;;0.30;87.90;;;;;;4976249;28;20031;-80
2021/03/25 05:23:02;;;;;;;20.33;9.65;;;0.30;87.80;;;;;;4976305;28;20031;-80
2021/03/25 05:25:40;;;;;;;22.77;10.52;;;0.30;88.00;;;;;;4976451;28;20027;-80
2021/03/25 05:28:14;;;;;;;27.00;10.43;;;0.30;88.10;;;;;;4976435;28;20031;-79
2021/03/25 05:30:40;;;;;;;18.38;8.82;;;0.30;88.10;;;;;;4976170;28;20026;-80
2021/03/25 05:33:11;;;;;;;24.02;11.27;;;0.30;88.10;;;;;;4975871;28;20027;-80
2021/03/25 05:35:47;;;;;;;26.60;10.43;;;0.40;88.20;;;;;;4975966;28;20022;-79
2021/03/25 05:38:13;;;;;;;19.40;9.82;;;0.40;88.30;;;;;;4975969;28;20027;-80
2021/03/25 05:41:08;;;;;;;22.27;11.05;;;0.40;88.30;;;;;;4976171;28;20033;-80
2021/03/25 05:43:36;;;;;;;23.47;9.57;;;0.50;89.00;;;;;;4975655;28;20034;-80
2021/03/25 05:46:14;;;;;;;24.92;10.85;;;0.50;88.40;;;;;;4981918;28;20348;-80
2021/03/25 05:48:45;;;;;;;24.42;9.90;;;0.60;88.50;;;;;;4995060;28;20030;-80
2021/03/25 05:51:14;;;;;;;23.35;11.05;;;0.60;88.50;;;;;;4995117;28;20049;-80
2021/03/25 05:54:14;;;;;;;24.92;11.00;;;0.60;88.50;;;;;;4995517;28;20027;-80
2021/03/25 05:56:49;;;;;;;24.20;11.35;;;0.70;88.70;;;;;;4977921;28;20386;-80
2021/03/25 05:59:15;;;;;;;;;;;0.80;88.80;;;;;;4995525;28;20410;-80
2021/03/25 06:02:04;;;;;;;23.15;11.73;;;0.90;89.00;;;;;;4994983;28;19905;-80
2021/03/25 06:04:35;;;;;;;22.23;10.45;;;1.00;89.10;;;;;;4994886;28;20037;-81
2021/03/25 06:07:45;;;;;;;20.73;9.65;;;1.00;89.00;;;;;;4995226;28;20470;-80
2021/03/25 06:10:46;;;;;;;26.08;10.95;;;1.10;89.00;;;;;;4993972;28;20023;-80
2021/03/25 06:13:18;;;;;;;25.83;11.07;;;1.20;89.10;;;;;;4994683;28;20053;-81
2021/03/25 06:15:58;;;;;;;25.67;11.13;;;1.30;89.30;;;;;;4995263;28;20023;-81
2021/03/25 06:19:03;;;;;;;21.52;11.18;;;1.30;89.40;;;;;;4994779;28;20065;-80
2021/03/25 06:21:29;;;;;;;;;;;1.50;89.60;;;;;;4995042;28;20022;-81
2021/03/25 06:24:32;;;;;;;19.83;9.90;;;1.50;89.60;;;;;;4994962;28;19906;-81
2021/03/25 06:27:21;;;;;;;22.92;10.60;;;1.60;89.60;;;;;;4994595;28;20102;-80
2021/03/25 06:29:51;;;;;;;25.27;10.38;;;1.70;89.50;;;;;;4965440;28;20034;-78
2021/03/25 06:32:29;;;;;;;26.08;11.30;;;1.80;89.60;;;;;;4995085;28;20030;-79
2021/03/25 06:35:11;;;;;;;25.27;10.75;;;1.90;89.70;;;;;;4994278;28;20096;-79
2021/03/25 06:37:55;;;;;;;26.10;11.25;;;2.00;89.90;;;;;;4994537;28;20505;-77
2021/03/25 06:40:41;;;;;;;20.20;11.63;;;2.10;90.00;;;;;;4994472;28;20022;-77
2021/03/25 06:43:45;;;;;;;21.55;10.88;;;2.20;89.80;;;;;;4994359;28;20390;-77
2021/03/25 06:46:38;;;;;;;25.60;11.48;;;2.30;89.70;;;;;;4937475;28;20488;-78
2021/03/25 06:49:17;;;;;;;23.85;9.52;;;2.30;89.70;;;;;;4974539;28;20046;-78
2021/03/25 06:51:43;;;;;;;26.80;11.48;;;2.40;89.70;;;;;;4974888;28;20029;-78
2021/03/25 06:54:16;;;;;;;25.08;10.50;;;2.50;89.90;;;;;;4975065;28;20035;-78
2021/03/25 06:56:44;;;;;;;26.45;12.35;;;2.50;89.90;;;;;;4974608;28;20022;-78
2021/03/25 06:59:23;;;;;;;22.23;10.27;;;2.60;89.90;;;;;;4974785;28;20045;-78
2021/03/25 07:01:54;;;;;;;23.35;10.90;;;2.70;90.00;;;;;;4974828;28;20022;-78
2021/03/25 07:04:29;;;;;;;25.02;12.07;;;2.80;90.00;;;;;;4975095;28;20485;-78
2021/03/25 07:07:02;;;;;;;24.70;11.05;;;2.90;90.10;;;;;;4975024;28;20027;-80
2021/03/25 07:09:32;;;;;;;29.35;11.60;;;3.00;90.10;;;;;;4957223;28;20062;-78
2021/03/25 07:12:31;;;;;;;27.73;11.27;;;3.10;90.20;;;;;;4974572;28;20026;-81
2021/03/25 07:14:58;;;;;;;26.52;11.38;;;3.30;90.20;;;;;;4961877;28;20075;-80
2021/03/25 07:17:41;;;;;;;25.92;12.15;;;3.40;90.20;;;;;;4974452;28;20023;-79
2021/03/25 07:20:42;;;;;;;22.50;10.82;;;3.50;90.30;;;;;;4974489;28;20030;-83
2021/03/25 07:23:12;;;;;;;20.58;10.63;;;3.70;90.40;;;;;;4950951;28;20039;-81
2021/03/25 07:25:44;;;;;;;24.25;12.00;;;3.90;90.40;;;;;;4978431;28;20467;-79
2021/03/25 07:28:15;;;;;;;36.10;11.90;;;4.00;90.50;;;;;;4978639;28;20113;-79
2021/03/25 07:30:52;;;;;;;21.27;11.10;;;4.20;90.50;;;;;;4978256;28;20094;-79
2021/03/25 07:33:23;;;;;;;28.45;12.15;;;4.30;90.50;;;;;;4961012;28;20106;-79
2021/03/25 07:35:54;;;;;;;22.10;11.20;;;4.50;90.70;;;;;;4960892;28;20479;-80
2021/03/25 07:38:27;;;;;;;19.67;10.77;;;4.70;90.60;;;;;;4960811;28;20046;-77
2021/03/25 07:41:06;;;;;;;24.60;12.25;;;4.80;90.60;;;;;;4977962;28;20553;-78
2021/03/25 07:43:58;;;;;;;23.13;11.13;;;5.00;90.60;;;;;;4978043;28;20110;-77
2021/03/25 07:46:46;;;;;;;21.92;9.77;;;5.20;90.60;;;;;;4987261;28;20376;-78
2021/03/25 07:49:12;;;;;;;21.35;10.32;;;5.30;90.50;;;;;;4984205;28;20041;-81
2021/03/25 07:51:43;;;;;;;40.58;20.65;;;5.50;90.90;;;;;;4997374;28;20410;-79
2021/03/25 07:54:15;;;;;;;57.10;30.08;;;5.60;90.70;;;;;;4997030;28;20023;-79
2021/03/25 07:57:04;;;;;;;23.02;10.45;;;5.70;90.60;;;;;;4997670;28;20108;-79
2021/03/25 07:59:34;;;;;;;19.50;9.82;;;5.90;90.70;;;;;;4997337;28;20386;-78
2021/03/25 08:02:00;;;;;;;31.48;12.15;;;6.10;90.70;;;;;;4997220;28;20026;-78
2021/03/25 08:04:32;;;;;;;18.17;9.93;;;6.20;90.80;;;;;;4997106;28;20081;-79
2021/03/25 08:07:08;;;;;;;19.23;9.57;;;6.40;90.90;;;;;;4997042;28;20026;-80
2021/03/25 08:09:43;;;;;;;26.33;9.95;;;6.60;90.80;;;;;;4997047;28;20045;-79
2021/03/25 08:12:20;;;;;;;19.20;9.43;;;6.80;90.90;;;;;;4979488;28;20026;-78
2021/03/25 08:14:45;;;;;;;19.92;9.95;;;6.90;90.80;;;;;;4997063;28;20046;-79
2021/03/25 08:17:11;;;;;;;21.33;9.57;;;7.10;90.90;;;;;;4996761;28;20493;-79
2021/03/25 08:19:54;;;;;;;21.95;10.40;;;7.20;90.90;;;;;;4996725;28;20409;-79
2021/03/25 08:22:28;;;;;;;20.25;9.18;;;7.40;90.90;;;;;;4996789;28;20502;-79
2021/03/25 08:25:21;;;;;;;21.48;9.70;;;7.60;91.00;;;;;;4996784;28;20173;-79
2021/03/25 08:28:01;;;;;;;16.73;9.23;;;7.80;91.00;;;;;;4996671;28;20089;-79
2021/03/25 08:30:51;;;;;;;20.38;9.88;;;7.90;90.90;;;;;;4996524;28;20030;-79
2021/03/25 08:33:19;;;;;;;17.80;9.02;;;8.10;90.90;;;;;;4996195;28;20027;-79
2021/03/25 08:36:14;;;;;;;18.02;8.52;;;8.20;91.10;;;;;;4997116;28;20022;-78
2021/03/25 08:38:47;;;;;;;16.80;9.05;;;8.50;91.20;;;;;;4986151;28;20042;-78
2021/03/25 08:41:26;;;;;;;20.65;8.57;;;8.60;91.00;;;;;;4996589;28;20038;-80
2021/03/25 08:44:06;;;;;;;18.60;8.85;;;8.90;91.20;;;;;;4996435;28;20590;-80
2021/03/25 08:46:42;;;;;;;18.63;9.55;;;9.10;91.30;;;;;;4988421;28;20057;-79
2021/03/25 08:49:16;;;;;;;16.42;8.95;;;9.30;91.30;;;;;;4996252;28;20045;-80
2021/03/25 08:51:44;;;;;;;19.70;8.53;;;9.50;91.20;;;;;;4996449;28;20022;-80
2021/03/25 08:54:25;;;;;;;20.23;9.13;;;9.70;91.20;;;;;;4996287;28;20023;-79
2021/03/25 08:57:05;;;;;;;21.30;9.32;;;9.90;91.30;;;;;;4995898;28;20064;-79
2021/03/25 08:59:34;;;;;;;19.98;8.07;;;10.10;91.30;;;;;;4996158;28;20089;-79
2021/03/25 09:02:02;;;;;;;17.80;8.07;;;10.30;91.30;;;;;;4996052;28;20023;-79
2021/03/25 09:04:35;;;;;;;14.68;8.43;;;10.50;91.20;;;;;;4996123;28;20077;-81
2021/03/25 09:07:04;;;;;;;17.95;8.68;;;10.70;91.30;;;;;;4996056;28;20022;-80
2021/03/25 09:09:44;;;;;;;17.02;8.88;;;10.90;91.40;;;;;;4994694;28;20483;-81
2021/03/25 09:12:23;;;;;;;21.73;8.82;;;11.10;91.30;;;;;;4978421;28;20050;-79
2021/03/25 09:14:50;;;;;;;18.17;9.18;;;11.30;91.40;;;;;;4995871;28;20026;-79
2021/03/25 09:17:21;;;;;;;16.83;7.65;;;11.50;91.40;;;;;;4995701;28;20023;-79
2021/03/25 09:19:50;;;;;;;18.50;8.20;;;11.70;91.30;;;;;;4996034;28;20117;-79
2021/03/25 09:22:34;;;;;;;15.35;8.02;;;11.90;91.40;;;;;;4978166;28;20038;-81
2021/03/25 09:25:16;;;;;;;18.05;8.55;;;12.10;91.30;;;;;;4995325;28;20041;-80
2021/03/25 09:28:07;;;;;;;15.07;7.53;;;12.30;91.30;;;;;;4995591;28;20138;-81
2021/03/25 09:31:10;;;;;;;17.15;7.65;;;12.50;91.30;;;;;;4995847;28;20049;-81
2021/03/25 09:33:44;;;;;;;16.83;7.28;;;12.70;91.50;;;;;;4995426;28;20049;-81
2021/03/25 09:36:32;;;;;;;16.77;6.82;;;12.90;91.50;;;;;;4995381;28;20029;-81
2021/03/25 09:38:57;;;;;;;14.95;7.47;;;13.20;91.40;;;;;;4993762;28;20031;-79
2021/03/25 09:41:26;;;;;;;16.17;7.55;;;13.30;91.30;;;;;;4995417;28;20026;-79
2021/03/25 09:44:47;;;;;;;14.18;6.90;;;13.50;91.20;;;;;;4994401;28;20062;-86
2021/03/25 09:47:36;;;;;;;14.82;6.95;;;13.60;91.20;;;;;;4961348;28;20435;-85
2021/03/25 09:50:02;;;;;;;14.45;6.57;;;13.90;91.30;;;;;;4965100;28;20047;-83
2021/03/25 09:52:56;;;;;;;14.10;6.35;;;14.10;91.50;;;;;;4974321;28;20049;-86
2021/03/25 09:55:25;;;;;;;14.82;6.95;;;14.30;91.60;;;;;;4975169;28;20471;-83
2021/03/25 09:57:52;;;;;;;15.88;6.13;;;14.70;91.90;;;;;;4974442;28;20062;-86
2021/03/25 10:00:31;;;;;;;15.27;6.85;;;14.90;91.70;;;;;;4974535;28;20353;-82
2021/03/25 10:03:04;;;;;;;18.13;7.30;;;15.10;91.50;;;;;;4975560;28;20375;-81
2021/03/25 10:05:36;;;;;;;13.75;6.80;;;15.30;91.40;;;;;;4975748;28;20023;-80
2021/03/25 10:08:27;;;;;;;29.80;7.32;;;15.50;91.50;;;;;;4974210;28;20045;-80
2021/03/25 10:11:00;;;;;;;14.75;6.20;;;15.70;91.30;;;;;;4973706;28;20027;-80
2021/03/25 10:13:29;;;;;;;15.43;6.50;;;15.90;91.30;;;;;;4974032;28;20054;-80
2021/03/25 10:16:03;;;;;;;16.98;6.53;;;16.10;91.40;;;;;;4975447;28;20065;-80
2021/03/25 10:18:32;;;;;;;13.57;6.13;;;16.30;91.20;;;;;;4975167;28;20069;-81
2021/03/25 10:20:58;;;;;;;25.00;7.75;;;16.50;91.40;;;;;;4975232;28;20023;-81
2021/03/25 10:23:32;;;;;;;15.65;6.72;;;16.60;91.50;;;;;;4973764;28;20078;-82
2021/03/25 10:26:20;;;;;;;18.35;6.70;;;16.90;91.80;;;;;;4974964;28;20031;-80
2021/03/25 10:29:06;;;;;;;16.73;6.03;;;17.20;91.60;;;;;;4975029;28;20055;-80
2021/03/25 10:31:57;;;;;;;13.88;6.25;;;17.60;91.60;;;;;;4974881;28;20022;-80
2021/03/25 10:34:29;;;;;;;13.70;5.75;;;17.90;91.80;;;;;;4975135;28;20029;-82
2021/03/25 10:37:00;;;;;;;17.48;5.93;;;18.20;91.90;;;;;;4973761;28;20042;-82
2021/03/25 10:39:36;;;;;;;13.73;5.43;;;18.60;92.20;;;;;;4974826;28;20034;-82
2021/03/25 10:42:27;;;;;;;11.50;5.63;;;18.90;92.00;;;;;;4975285;28;20051;-81
2021/03/25 10:44:54;;;;;;;10.98;4.97;;;19.30;91.80;;;;;;4974548;28;20030;-81
2021/03/25 10:47:31;;;;;;;11.05;5.10;;;19.70;92.20;;;;;;4991283;28;20118;-83
2021/03/25 10:49:59;;;;;;;14.50;6.00;;;20.00;92.00;;;;;;4993971;28;20510;-84
2021/03/25 10:52:40;;;;;;;19.58;6.95;;;20.20;92.00;;;;;;4977014;28;20121;-85
2021/03/25 10:55:08;;;;;;;17.30;6.93;;;20.60;91.80;;;;;;4976558;28;20084;-82
2021/03/25 10:57:36;;;;;;;13.25;5.35;;;20.90;92.10;;;;;;4993997;28;20027;-81
2021/03/25 11:00:21;;;;;;;11.10;5.38;;;21.30;92.00;;;;;;4994121;28;20121;-82
2021/03/25 11:02:46;;;;;;;11.00;5.13;;;21.60;91.60;;;;;;4993942;28;20026;-83
2021/03/25 11:05:20;;;;;;;11.02;5.35;;;21.80;92.10;;;;;;4977102;28;20048;-82
2021/03/25 11:08:00;;;;;;;10.88;5.18;;;22.20;91.90;;;;;;4977164;28;20073;-83
2021/03/25 11:10:31;;;;;;;12.75;5.72;;;22.40;91.10;;;;;;4977087;28;20034;-81
2021/03/25 11:13:18;;;;;;;11.80;5.85;;;22.40;91.30;;;;;;4994268;28;20039;-79
2021/03/25 11:15:47;;;;;;;12.88;6.00;;;22.60;90.90;;;;;;4993822;28;20478;-82
2021/03/25 11:18:34;;;;;;;10.63;5.35;;;22.70;91.10;;;;;;4994303;28;20385;-82
2021/03/25 11:21:02;;;;;;;11.20;5.55;;;22.90;91.20;;;;;;4994099;28;20030;-82
2021/03/25 11:23:29;;;;;;;8.15;3.47;;;23.30;91.40;;;;;;4994562;28;20025;-83
2021/03/25 11:25:59;;;;;;;9.48;4.47;;;23.40;90.70;;;;;;4993940;28;20031;-82
2021/03/25 11:28:27;;;;;;;11.27;5.40;;;23.30;90.20;;;;;;4993819;28;20082;-82
2021/03/25 11:31:15;;;;;;;10.27;5.05;;;23.20;90.70;;;;;;4993953;28;20070;-82
2021/03/25 11:33:40;;;;;;;12.27;5.00;;;23.40;90.80;;;;;;4993726;28;20495;-83
2021/03/25 11:36:06;;;;;;;11.63;5.10;;;23.80;92.10;;;;;;4993740;28;20074;-83
2021/03/25 11:38:39;;;;;;;9.70;4.60;;;24.30;91.90;;;;;;4993897;28;20022;-84
2021/03/25 11:41:07;;;;;;;10.50;5.07;;;24.50;91.00;;;;;;4976531;28;20019;-82
2021/03/25 11:43:47;;;;;;;10.77;5.05;;;24.70;90.50;;;;;;4976582;28;20121;-83
2021/03/25 11:46:33;;;;;;;10.55;4.53;;;24.80;90.80;;;;;;4986239;28;20015;-82
2021/03/25 11:49:12;;;;;;;11.63;5.13;;;25.20;91.10;;;;;;4956814;28;20035;-82
2021/03/25 11:51:45;;;;;;;11.25;5.68;;;25.30;91.00;;;;;;4974392;28;20030;-83
2021/03/25 11:54:27;;;;;;;10.02;5.20;;;25.70;90.80;;;;;;4956662;28;20031;-82
2021/03/25 11:57:09;;;;;;;10.40;5.05;;;25.70;90.30;;;;;;4974551;28;20055;-81
2021/03/25 11:59:38;;;;;;;10.73;4.68;;;25.90;90.40;;;;;;4974248;28;20498;-84
2021/03/25 12:02:23;;;;;;;10.68;4.80;;;25.90;90.00;;;;;;4957080;28;20038;-91
2021/03/25 12:04:50;;;;;;;10.60;4.60;;;26.20;90.70;;;;;;4974114;28;20027;-83
2021/03/25 12:07:19;;;;;;;12.15;4.85;;;26.40;90.40;;;;;;4974360;28;20073;-84
2021/03/25 12:10:07;;;;;;;10.82;4.53;;;26.40;90.20;;;;;;4977453;28;20125;-83
2021/03/25 12:12:32;;;;;;;10.82;4.60;;;26.60;90.40;;;;;;4977606;28;20030;-82
2021/03/25 12:14:58;;;;;;;9.68;4.38;;;26.90;90.60;;;;;;4977540;28;20042;-82
2021/03/25 12:17:24;;;;;;;9.63;4.20;;;27.30;91.50;;;;;;4977740;28;20379;-87
2021/03/25 12:19:50;;;;;;;11.15;5.03;;;27.60;91.00;;;;;;4960632;28;20074;-85
2021/03/25 12:22:29;;;;;;;9.73;4.60;;;27.90;90.70;;;;;;4960734;28;20034;-83
2021/03/25 12:24:55;;;;;;;9.27;4.15;;;27.80;87.60;;;;;;4960306;28;20027;-85
2021/03/25 12:27:26;;;;;;;9.50;4.10;;;27.60;87.70;;;;;;4960152;28;20027;-85
2021/03/25 12:29:53;;;;;;;8.13;3.53;;;27.20;85.60;;;;;;4977240;28;20093;-84
2021/03/25 12:32:26;;;;;;;8.30;3.40;;;27.10;86.90;;;;;;4977363;28;20097;-86
2021/03/25 12:34:52;;;;;;;6.50;2.92;;;27.00;87.60;;;;;;4977341;28;20030;-82
2021/03/25 12:37:18;;;;;;;6.72;3.40;;;26.90;87.00;;;;;;4976849;28;20387;-83
2021/03/25 12:39:43;;;;;;;9.93;4.15;;;26.60;85.80;;;;;;4944002;28;20506;-84
2021/03/25 12:42:12;;;;;;;8.45;3.50;;;26.50;85.70;;;;;;4944121;28;20474;-83
2021/03/25 12:44:38;;;;;;;7.50;3.17;;;26.40;85.70;;;;;;4976952;28;20027;-84
2021/03/25 12:47:06;;;;;;;7.70;2.90;;;26.40;87.20;;;;;;4974179;28;20053;-84
2021/03/25 12:49:32;;;;;;;10.70;3.83;;;26.40;86.60;;;;;;4998056;28;20552;-87
2021/03/25 12:51:58;;;;;;;6.15;2.35;;;26.10;84.70;;;;;;5011493;28;20538;-82
2021/03/25 12:54:24;;;;;;;7.50;3.22;;;26.30;87.70;;;;;;4996347;28;20030;-82
2021/03/25 12:56:56;;;;;;;6.22;2.60;;;26.40;87.20;;;;;;5011273;28;20022;-82
2021/03/25 12:59:22;;;;;;;1.90;1.38;;;26.60;87.70;;;;;;5011593;28;20458;-82
2021/03/25 13:01:47;;;;;;;7.28;2.88;;;26.70;87.60;;;;;;4994750;28;20026;-82
2021/03/25 13:04:13;;;;;;;9.25;3.05;;;26.90;88.60;;;;;;4996337;28;20026;-84
2021/03/25 13:06:39;;;;;;;6.22;2.83;;;27.20;88.80;;;;;;4994859;28;20045;-83
2021/03/25 13:09:05;;;;;;;6.22;2.63;;;27.20;86.10;;;;;;4996034;28;20045;-82
2021/03/25 13:11:31;;;;;;;7.72;3.25;;;26.90;83.30;;;;;;4995947;28;20026;-83
2021/03/25 13:13:57;;;;;;;6.72;2.90;;;26.80;85.00;;;;;;5010980;28;20038;-83
2021/03/25 13:16:24;;;;;;;7.15;3.03;;;27.10;86.30;;;;;;4995630;28;20382;-84
2021/03/25 13:18:49;;;;;;;7.50;3.30;;;27.10;86.10;;;;;;4995697;28;20026;-85
2021/03/25 13:21:16;;;;;;;7.68;3.17;;;27.50;87.70;;;;;;4995699;28;20037;-84